sensor_id;sensor_type;location;lat;lon;timestamp;pressure;altitude;pressure_sealevel;temperature;humidity
34205;BME280;20471;49.680;20.074;2023-03-22T00:01:21;97108.39;;;5.94;77.44
34205;BME280;20471;49.680;20.074;2023-03-22T00:03:49;97107.52;;;5.94;77.38
34205;BME280;20471;49.680;20.074;2023-03-22T00:06:18;97107.33;;;5.91;77.12
34205;BME280;20471;49.680;20.074;2023-03-22T00:08:49;97104.47;;;5.84;76.98
34205;BME280;20471;49.680;20.074;2023-03-22T00:11:19;97103.48;;;5.74;77.18
34205;BME280;20471;49.680;20.074;2023-03-22T00:13:48;97101.84;;;5.68;77.30
34205;BME280;20471;49.680;20.074;2023-03-22T00:16:18;97101.69;;;5.65;77.46
34205;BME280;20471;49.680;20.074;2023-03-22T00:18:46;97097.22;;;5.63;77.30
34205;BME280;20471;49.680;20.074;2023-03-22T00:21:14;97092.08;;;5.57;77.12
34205;BME280;20471;49.680;20.074;2023-03-22T00:23:42;97091.13;;;5.53;77.27
34205;BME280;20471;49.680;20.074;2023-03-22T00:26:11;97093.30;;;5.53;77.41
34205;BME280;20471;49.680;20.074;2023-03-22T00:28:39;97092.14;;;5.52;77.45
34205;BME280;20471;49.680;20.074;2023-03-22T00:31:08;97089.02;;;5.50;77.27
34205;BME280;20471;49.680;20.074;2023-03-22T00:33:36;97090.02;;;5.48;77.29
34205;BME280;20471;49.680;20.074;2023-03-22T00:36:05;97088.16;;;5.45;77.28
34205;BME280;20471;49.680;20.074;2023-03-22T00:38:33;97084.15;;;5.41;77.29
34205;BME280;20471;49.680;20.074;2023-03-22T00:41:05;97081.27;;;5.36;77.37
34205;BME280;20471;49.680;20.074;2023-03-22T00:43:33;97078.77;;;5.30;77.44
34205;BME280;20471;49.680;20.074;2023-03-22T00:46:01;97078.55;;;5.27;77.44
34205;BME280;20471;49.680;20.074;2023-03-22T00:48:29;97075.31;;;5.25;77.49
34205;BME280;20471;49.680;20.074;2023-03-22T00:50:57;97072.96;;;5.18;77.29
34205;BME280;20471;49.680;20.074;2023-03-22T00:53:25;97071.16;;;5.11;77.27
34205;BME280;20471;49.680;20.074;2023-03-22T00:55:55;97070.27;;;5.07;77.28
34205;BME280;20471;49.680;20.074;2023-03-22T00:58:23;97070.55;;;5.07;77.30
34205;BME280;20471;49.680;20.074;2023-03-22T01:00:51;97073.69;;;5.04;77.14
34205;BME280;20471;49.680;20.074;2023-03-22T01:03:19;97074.70;;;5.01;76.86
34205;BME280;20471;49.680;20.074;2023-03-22T01:05:47;97075.92;;;4.98;76.76
34205;BME280;20471;49.680;20.074;2023-03-22T01:08:15;97080.77;;;4.93;76.59
34205;BME280;20471;49.680;20.074;2023-03-22T01:10:43;97081.30;;;4.87;76.56
34205;BME280;20471;49.680;20.074;2023-03-22T01:13:11;97087.05;;;4.80;76.39
34205;BME280;20471;49.680;20.074;2023-03-22T01:15:39;97081.46;;;4.68;76.39
34205;BME280;20471;49.680;20.074;2023-03-22T01:18:07;97074.61;;;4.55;76.32
34205;BME280;20471;49.680;20.074;2023-03-22T01:20:35;97073.27;;;4.46;76.39
34205;BME280;20471;49.680;20.074;2023-03-22T01:23:03;97071.80;;;4.37;76.51
34205;BME280;20471;49.680;20.074;2023-03-22T01:25:31;97072.02;;;4.31;76.75
34205;BME280;20471;49.680;20.074;2023-03-22T01:27:59;97072.10;;;4.28;76.99
34205;BME280;20471;49.680;20.074;2023-03-22T01:30:28;97073.63;;;4.29;77.10
34205;BME280;20471;49.680;20.074;2023-03-22T01:32:57;97071.67;;;4.29;77.01
34205;BME280;20471;49.680;20.074;2023-03-22T01:35:24;97067.15;;;4.30;77.18
34205;BME280;20471;49.680;20.074;2023-03-22T01:37:52;97063.20;;;4.27;77.21
34205;BME280;20471;49.680;20.074;2023-03-22T01:40:20;97064.02;;;4.27;77.35
34205;BME280;20471;49.680;20.074;2023-03-22T01:42:48;97058.91;;;4.29;77.30
34205;BME280;20471;49.680;20.074;2023-03-22T01:45:25;97053.02;;;4.30;77.36
34205;BME280;20471;49.680;20.074;2023-03-22T01:47:58;97054.20;;;4.29;77.41
34205;BME280;20471;49.680;20.074;2023-03-22T01:50:27;97051.05;;;4.26;77.55
34205;BME280;20471;49.680;20.074;2023-03-22T01:52:56;97052.69;;;4.25;77.49
34205;BME280;20471;49.680;20.074;2023-03-22T01:55:26;97050.23;;;4.27;77.54
34205;BME280;20471;49.680;20.074;2023-03-22T01:57:54;97049.09;;;4.29;77.55
34205;BME280;20471;49.680;20.074;2023-03-22T02:00:22;97043.14;;;4.29;77.59
34205;BME280;20471;49.680;20.074;2023-03-22T02:02:50;97045.39;;;4.28;77.60
34205;BME280;20471;49.680;20.074;2023-03-22T02:05:19;97049.13;;;4.29;77.63
34205;BME280;20471;49.680;20.074;2023-03-22T02:07:48;97047.10;;;4.26;77.72
34205;BME280;20471;49.680;20.074;2023-03-22T02:10:17;97048.49;;;4.22;77.90
34205;BME280;20471;49.680;20.074;2023-03-22T02:42:06;97027.82;;;4.17;78.22
34205;BME280;20471;49.680;20.074;2023-03-22T02:44:52;97031.50;;;4.17;78.18
34205;BME280;20471;49.680;20.074;2023-03-22T02:47:40;97025.14;;;4.12;77.91
34205;BME280;20471;49.680;20.074;2023-03-22T02:50:13;97021.41;;;4.06;77.82
34205;BME280;20471;49.680;20.074;2023-03-22T02:52:49;97020.42;;;4.03;77.83
34205;BME280;20471;49.680;20.074;2023-03-22T02:55:22;97021.27;;;4.01;77.65
34205;BME280;20471;49.680;20.074;2023-03-22T03:00:36;97015.45;;;3.83;77.53
34205;BME280;20471;49.680;20.074;2023-03-22T03:03:06;97014.48;;;3.78;77.55
34205;BME280;20471;49.680;20.074;2023-03-22T03:05:38;97009.63;;;3.72;77.66
34205;BME280;20471;49.680;20.074;2023-03-22T03:08:08;97010.77;;;3.62;77.75
34205;BME280;20471;49.680;20.074;2023-03-22T03:10:38;97006.54;;;3.55;77.86
34205;BME280;20471;49.680;20.074;2023-03-22T03:13:14;97005.95;;;3.49;78.02
34205;BME280;20471;49.680;20.074;2023-03-22T03:15:43;97009.55;;;3.46;78.04
34205;BME280;20471;49.680;20.074;2023-03-22T03:21:30;97008.64;;;3.34;78.12
34205;BME280;20471;49.680;20.074;2023-03-22T03:36:46;97016.86;;;2.99;78.63
34205;BME280;20471;49.680;20.074;2023-03-22T03:39:16;97015.23;;;2.98;78.63
34205;BME280;20471;49.680;20.074;2023-03-22T03:41:45;97013.52;;;3.00;78.59
34205;BME280;20471;49.680;20.074;2023-03-22T03:44:15;97012.83;;;3.00;78.40
34205;BME280;20471;49.680;20.074;2023-03-22T03:46:43;97014.28;;;2.95;78.13
34205;BME280;20471;49.680;20.074;2023-03-22T03:49:12;97017.71;;;2.93;78.05
34205;BME280;20471;49.680;20.074;2023-03-22T03:51:46;97017.75;;;2.91;77.86
34205;BME280;20471;49.680;20.074;2023-03-22T03:54:14;97018.22;;;2.86;77.58
34205;BME280;20471;49.680;20.074;2023-03-22T03:56:43;97020.89;;;2.81;77.44
34205;BME280;20471;49.680;20.074;2023-03-22T03:59:14;97022.31;;;2.78;77.42
34205;BME280;20471;49.680;20.074;2023-03-22T04:01:43;97023.13;;;2.74;77.34
34205;BME280;20471;49.680;20.074;2023-03-22T04:04:19;97024.10;;;2.70;77.29
34205;BME280;20471;49.680;20.074;2023-03-22T04:06:52;97027.17;;;2.66;77.23
34205;BME280;20471;49.680;20.074;2023-03-22T04:09:25;97026.23;;;2.62;77.20
34205;BME280;20471;49.680;20.074;2023-03-22T04:11:54;97028.63;;;2.60;77.21
34205;BME280;20471;49.680;20.074;2023-03-22T04:14:23;97031.13;;;2.56;77.20
34205;BME280;20471;49.680;20.074;2023-03-22T04:16:51;97032.45;;;2.52;77.27
34205;BME280;20471;49.680;20.074;2023-03-22T04:19:20;97029.13;;;2.51;77.28
34205;BME280;20471;49.680;20.074;2023-03-22T04:21:48;97029.33;;;2.51;77.29
34205;BME280;20471;49.680;20.074;2023-03-22T04:24:19;97031.29;;;2.50;77.23
34205;BME280;20471;49.680;20.074;2023-03-22T04:26:47;97030.68;;;2.46;77.13
34205;BME280;20471;49.680;20.074;2023-03-22T04:29:15;97033.87;;;2.36;77.16
34205;BME280;20471;49.680;20.074;2023-03-22T04:31:43;97035.94;;;2.32;77.35
34205;BME280;20471;49.680;20.074;2023-03-22T04:34:11;97042.30;;;2.31;77.50
34205;BME280;20471;49.680;20.074;2023-03-22T04:36:39;97044.67;;;2.29;77.32
34205;BME280;20471;49.680;20.074;2023-03-22T04:39:08;97040.55;;;2.23;77.25
34205;BME280;20471;49.680;20.074;2023-03-22T04:41:37;97040.73;;;2.18;77.34
34205;BME280;20471;49.680;20.074;2023-03-22T04:44:05;97038.66;;;2.17;77.44
34205;BME280;20471;49.680;20.074;2023-03-22T04:46:34;97040.63;;;2.17;77.44
34205;BME280;20471;49.680;20.074;2023-03-22T04:49:03;97040.10;;;2.14;77.30
34205;BME280;20471;49.680;20.074;2023-03-22T04:51:31;97040.77;;;2.13;77.44
34205;BME280;20471;49.680;20.074;2023-03-22T04:53:59;97046.16;;;2.14;77.59
34205;BME280;20471;49.680;20.074;2023-03-22T04:56:27;97047.75;;;2.10;77.25
34205;BME280;20471;49.680;20.074;2023-03-22T04:58:55;97049.08;;;2.05;77.19
34205;BME280;20471;49.680;20.074;2023-03-22T05:01:23;97053.35;;;2.03;77.32
34205;BME280;20471;49.680;20.074;2023-03-22T05:03:51;97056.54;;;2.05;77.60
34205;BME280;20471;49.680;20.074;2023-03-22T05:06:19;97056.74;;;2.04;77.38
34205;BME280;20471;49.680;20.074;2023-03-22T05:08:47;97059.14;;;2.01;77.36
34205;BME280;20471;49.680;20.074;2023-03-22T05:11:18;97060.63;;;1.97;77.26
34205;BME280;20471;49.680;20.074;2023-03-22T05:13:46;97057.73;;;1.91;77.25
34205;BME280;20471;49.680;20.074;2023-03-22T05:16:13;97054.81;;;1.90;77.52
34205;BME280;20471;49.680;20.074;2023-03-22T05:18:41;97051.16;;;1.92;77.52
34205;BME280;20471;49.680;20.074;2023-03-22T05:21:12;97055.90;;;1.94;77.59
34205;BME280;20471;49.680;20.074;2023-03-22T05:23:41;97059.33;;;1.95;77.68
34205;BME280;20471;49.680;20.074;2023-03-22T05:26:09;97057.52;;;1.96;77.70
34205;BME280;20471;49.680;20.074;2023-03-22T05:28:42;97056.39;;;1.95;77.77
34205;BME280;20471;49.680;20.074;2023-03-22T05:31:10;97058.79;;;1.95;77.71
34205;BME280;20471;49.680;20.074;2023-03-22T05:33:40;97060.86;;;1.96;77.79
34205;BME280;20471;49.680;20.074;2023-03-22T05:36:08;97066.35;;;1.93;77.67
34205;BME280;20471;49.680;20.074;2023-03-22T05:38:37;97066.53;;;1.91;77.73
34205;BME280;20471;49.680;20.074;2023-03-22T05:41:05;97070.62;;;1.93;78.00
34205;BME280;20471;49.680;20.074;2023-03-22T05:43:33;97072.79;;;1.96;77.92
34205;BME280;20471;49.680;20.074;2023-03-22T05:46:07;97073.64;;;1.98;77.91
34205;BME280;20471;49.680;20.074;2023-03-22T05:48:36;97074.85;;;2.00;78.14
34205;BME280;20471;49.680;20.074;2023-03-22T05:51:05;97074.98;;;2.03;78.26
34205;BME280;20471;49.680;20.074;2023-03-22T05:53:33;97075.43;;;2.07;78.32
34205;BME280;20471;49.680;20.074;2023-03-22T05:56:01;97079.14;;;2.12;78.34
34205;BME280;20471;49.680;20.074;2023-03-22T05:58:30;97077.93;;;2.18;78.52
34205;BME280;20471;49.680;20.074;2023-03-22T06:01:06;97078.77;;;2.24;78.56
34205;BME280;20471;49.680;20.074;2023-03-22T06:03:34;97075.63;;;2.33;78.71
34205;BME280;20471;49.680;20.074;2023-03-22T06:06:03;97075.09;;;2.42;78.95
34205;BME280;20471;49.680;20.074;2023-03-22T06:08:36;97074.37;;;2.54;79.17
34205;BME280;20471;49.680;20.074;2023-03-22T06:11:05;97073.77;;;2.67;79.43
34205;BME280;20471;49.680;20.074;2023-03-22T06:13:33;97076.30;;;2.79;79.46
34205;BME280;20471;49.680;20.074;2023-03-22T06:16:02;97073.40;;;2.93;79.67
34205;BME280;20471;49.680;20.074;2023-03-22T06:18:30;97072.03;;;3.05;79.76
34205;BME280;20471;49.680;20.074;2023-03-22T06:20:58;97076.91;;;3.16;79.82
34205;BME280;20471;49.680;20.074;2023-03-22T06:23:26;97080.43;;;3.30;79.93
34205;BME280;20471;49.680;20.074;2023-03-22T06:25:54;97078.42;;;3.42;80.08
34205;BME280;20471;49.680;20.074;2023-03-22T06:28:22;97079.13;;;3.56;80.15
34205;BME280;20471;49.680;20.074;2023-03-22T06:30:55;97080.67;;;3.71;80.24
34205;BME280;20471;49.680;20.074;2023-03-22T06:33:22;97070.55;;;3.82;80.20
34205;BME280;20471;49.680;20.074;2023-03-22T06:35:50;97074.66;;;3.96;80.25
34205;BME280;20471;49.680;20.074;2023-03-22T06:38:18;97075.15;;;4.10;80.31
34205;BME280;20471;49.680;20.074;2023-03-22T06:40:46;97073.13;;;4.26;80.54
34205;BME280;20471;49.680;20.074;2023-03-22T06:43:14;97075.35;;;4.40;80.58
34205;BME280;20471;49.680;20.074;2023-03-22T06:45:44;97073.55;;;4.57;80.50
34205;BME280;20471;49.680;20.074;2023-03-22T06:48:12;97074.26;;;4.73;80.61
34205;BME280;20471;49.680;20.074;2023-03-22T06:50:40;97073.07;;;4.90;80.58
34205;BME280;20471;49.680;20.074;2023-03-22T06:53:08;97066.08;;;5.09;80.74
34205;BME280;20471;49.680;20.074;2023-03-22T06:55:36;97062.84;;;5.28;80.92
34205;BME280;20471;49.680;20.074;2023-03-22T06:58:05;97057.27;;;5.47;80.78
34205;BME280;20471;49.680;20.074;2023-03-22T07:00:33;97054.09;;;5.64;80.62
34205;BME280;20471;49.680;20.074;2023-03-22T07:03:01;97055.86;;;5.78;80.49
34205;BME280;20471;49.680;20.074;2023-03-22T07:05:29;97054.45;;;5.94;80.49
34205;BME280;20471;49.680;20.074;2023-03-22T07:07:57;97052.63;;;6.06;80.27
34205;BME280;20471;49.680;20.074;2023-03-22T07:10:25;97051.04;;;6.17;80.02
34205;BME280;20471;49.680;20.074;2023-03-22T07:12:53;97049.15;;;6.28;80.03
34205;BME280;20471;49.680;20.074;2023-03-22T07:15:21;97052.04;;;6.37;79.87
34205;BME280;20471;49.680;20.074;2023-03-22T07:17:50;97048.63;;;6.47;79.68
34205;BME280;20471;49.680;20.074;2023-03-22T07:20:18;97053.92;;;6.56;79.52
34205;BME280;20471;49.680;20.074;2023-03-22T07:22:48;97052.08;;;6.64;79.43
34205;BME280;20471;49.680;20.074;2023-03-22T07:25:16;97046.00;;;6.72;79.28
34205;BME280;20471;49.680;20.074;2023-03-22T07:27:44;97043.70;;;6.82;79.58
34205;BME280;20471;49.680;20.074;2023-03-22T07:30:12;97040.36;;;6.95;79.67
34205;BME280;20471;49.680;20.074;2023-03-22T07:32:40;97040.93;;;7.07;79.51
34205;BME280;20471;49.680;20.074;2023-03-22T07:35:08;97040.75;;;7.19;79.04
34205;BME280;20471;49.680;20.074;2023-03-22T07:37:36;97042.27;;;7.31;78.88
34205;BME280;20471;49.680;20.074;2023-03-22T07:40:04;97043.96;;;7.42;78.54
34205;BME280;20471;49.680;20.074;2023-03-22T07:42:32;97043.97;;;7.56;78.55
34205;BME280;20471;49.680;20.074;2023-03-22T07:45:00;97037.69;;;7.71;78.52
34205;BME280;20471;49.680;20.074;2023-03-22T07:47:29;97029.41;;;7.85;78.15
34205;BME280;20471;49.680;20.074;2023-03-22T07:49:57;97025.52;;;7.99;77.64
34205;BME280;20471;49.680;20.074;2023-03-22T07:52:25;97027.65;;;8.18;77.44
34205;BME280;20471;49.680;20.074;2023-03-22T07:54:53;97028.48;;;8.37;77.11
34205;BME280;20471;49.680;20.074;2023-03-22T07:57:21;97032.09;;;8.52;76.77
34205;BME280;20471;49.680;20.074;2023-03-22T07:59:49;97033.12;;;8.62;76.23
34205;BME280;20471;49.680;20.074;2023-03-22T08:02:17;97038.73;;;8.74;76.06
34205;BME280;20471;49.680;20.074;2023-03-22T08:04:45;97036.58;;;8.85;75.91
34205;BME280;20471;49.680;20.074;2023-03-22T08:07:14;97028.80;;;8.99;75.84
34205;BME280;20471;49.680;20.074;2023-03-22T08:09:44;97026.97;;;9.19;75.73
34205;BME280;20471;49.680;20.074;2023-03-22T08:12:12;97024.13;;;9.47;75.48
34205;BME280;20471;49.680;20.074;2023-03-22T08:14:40;97022.73;;;9.72;75.03
34205;BME280;20471;49.680;20.074;2023-03-22T08:17:07;97013.86;;;10.02;74.98
34205;BME280;20471;49.680;20.074;2023-03-22T08:19:35;97006.91;;;10.41;74.34
34205;BME280;20471;49.680;20.074;2023-03-22T08:22:04;97006.64;;;10.78;74.27
34205;BME280;20471;49.680;20.074;2023-03-22T08:24:32;97011.45;;;11.07;73.58
34205;BME280;20471;49.680;20.074;2023-03-22T08:27:00;97008.28;;;11.28;72.64
34205;BME280;20471;49.680;20.074;2023-03-22T08:29:28;97010.98;;;11.43;72.07
34205;BME280;20471;49.680;20.074;2023-03-22T08:31:56;97010.40;;;11.53;71.38
34205;BME280;20471;49.680;20.074;2023-03-22T08:34:30;97007.16;;;11.62;70.81
34205;BME280;20471;49.680;20.074;2023-03-22T08:36:58;97005.02;;;11.68;69.95
34205;BME280;20471;49.680;20.074;2023-03-22T08:39:26;97002.79;;;11.77;69.80
34205;BME280;20471;49.680;20.074;2023-03-22T08:41:54;97001.48;;;11.91;69.59
34205;BME280;20471;49.680;20.074;2023-03-22T08:44:22;97002.83;;;12.07;69.62
34205;BME280;20471;49.680;20.074;2023-03-22T08:46:51;96999.58;;;12.23;69.41
34205;BME280;20471;49.680;20.074;2023-03-22T08:49:19;96995.29;;;12.48;68.98
34205;BME280;20471;49.680;20.074;2023-03-22T08:51:47;96993.98;;;12.61;68.36
34205;BME280;20471;49.680;20.074;2023-03-22T08:54:15;96993.28;;;12.71;67.41
34205;BME280;20471;49.680;20.074;2023-03-22T08:56:43;96995.33;;;12.78;66.79
34205;BME280;20471;49.680;20.074;2023-03-22T08:59:12;96995.91;;;12.83;66.56
34205;BME280;20471;49.680;20.074;2023-03-22T09:01:40;96994.47;;;12.91;65.79
34205;BME280;20471;49.680;20.074;2023-03-22T09:04:08;96992.20;;;13.01;65.58
34205;BME280;20471;49.680;20.074;2023-03-22T09:06:36;96986.89;;;13.08;64.87
34205;BME280;20471;49.680;20.074;2023-03-22T09:09:08;96984.67;;;13.17;64.88
34205;BME280;20471;49.680;20.074;2023-03-22T09:11:36;96982.31;;;13.25;64.59
34205;BME280;20471;49.680;20.074;2023-03-22T09:14:06;96980.01;;;13.31;64.18
34205;BME280;20471;49.680;20.074;2023-03-22T09:16:34;96977.04;;;13.37;63.85
34205;BME280;20471;49.680;20.074;2023-03-22T09:19:02;96973.47;;;13.43;63.65
34205;BME280;20471;49.680;20.074;2023-03-22T09:21:30;96971.85;;;13.51;63.41
34205;BME280;20471;49.680;20.074;2023-03-22T09:23:58;96972.52;;;13.57;62.91
34205;BME280;20471;49.680;20.074;2023-03-22T09:26:26;96970.19;;;13.63;62.54
34205;BME280;20471;49.680;20.074;2023-03-22T09:28:54;96963.52;;;13.88;62.62
34205;BME280;20471;49.680;20.074;2023-03-22T09:31:22;96957.72;;;14.28;61.88
34205;BME280;20471;49.680;20.074;2023-03-22T09:33:50;96953.41;;;14.51;61.16
34205;BME280;20471;49.680;20.074;2023-03-22T09:36:18;96950.91;;;14.58;60.66
34205;BME280;20471;49.680;20.074;2023-03-22T09:38:46;96945.16;;;14.66;60.69
34205;BME280;20471;49.680;20.074;2023-03-22T09:41:23;96938.15;;;14.80;60.85
34205;BME280;20471;49.680;20.074;2023-03-22T09:43:55;96935.45;;;15.08;60.79
34205;BME280;20471;49.680;20.074;2023-03-22T09:46:32;96928.31;;;15.45;60.16
34205;BME280;20471;49.680;20.074;2023-03-22T09:49:02;96923.64;;;15.66;58.98
34205;BME280;20471;49.680;20.074;2023-03-22T09:54:02;96923.99;;;16.00;58.50
34205;BME280;20471;49.680;20.074;2023-03-22T09:56:30;96921.33;;;16.05;57.69
34205;BME280;20471;49.680;20.074;2023-03-22T09:59:03;96915.39;;;16.00;57.35
34205;BME280;20471;49.680;20.074;2023-03-22T10:04:46;96919.46;;;15.82;56.95
34205;BME280;20471;49.680;20.074;2023-03-22T10:10:08;96912.77;;;15.73;56.75
34205;BME280;20471;49.680;20.074;2023-03-22T10:12:52;96912.14;;;15.70;56.98
34205;BME280;20471;49.680;20.074;2023-03-22T10:17:54;96904.27;;;16.00;57.20
34205;BME280;20471;49.680;20.074;2023-03-22T10:20:30;96904.50;;;16.50;57.47
34205;BME280;20471;49.680;20.074;2023-03-22T10:23:04;96902.26;;;17.05;56.43
34205;BME280;20471;49.680;20.074;2023-03-22T10:25:34;96902.98;;;17.42;55.11
34205;BME280;20471;49.680;20.074;2023-03-22T10:31:03;96894.07;;;18.09;53.80
34205;BME280;20471;49.680;20.074;2023-03-22T10:33:39;96889.11;;;17.86;52.70
34205;BME280;20471;49.680;20.074;2023-03-22T10:36:16;96889.11;;;17.53;52.24
34205;BME280;20471;49.680;20.074;2023-03-22T10:38:46;96892.92;;;17.22;52.46
34205;BME280;20471;49.680;20.074;2023-03-22T10:41:15;96899.70;;;17.07;52.79
34205;BME280;20471;49.680;20.074;2023-03-22T10:43:44;96900.94;;;17.01;52.53
34205;BME280;20471;49.680;20.074;2023-03-22T10:46:17;96903.29;;;17.00;52.57
34205;BME280;20471;49.680;20.074;2023-03-22T10:48:46;96904.69;;;16.97;52.53
34205;BME280;20471;49.680;20.074;2023-03-22T10:51:24;96899.26;;;16.94;52.18
34205;BME280;20471;49.680;20.074;2023-03-22T10:53:54;96896.97;;;16.94;52.23
34205;BME280;20471;49.680;20.074;2023-03-22T10:56:23;96891.52;;;17.00;52.07
34205;BME280;20471;49.680;20.074;2023-03-22T10:58:52;96894.35;;;17.02;52.31
34205;BME280;20471;49.680;20.074;2023-03-22T11:01:28;96893.85;;;17.03;52.50
34205;BME280;20471;49.680;20.074;2023-03-22T11:04:05;96890.15;;;17.03;51.87
34205;BME280;20471;49.680;20.074;2023-03-22T11:06:37;96883.12;;;16.94;51.96
34205;BME280;20471;49.680;20.074;2023-03-22T11:14:26;96879.36;;;16.83;51.70
34205;BME280;20471;49.680;20.074;2023-03-22T11:17:06;96877.17;;;16.91;51.82
34205;BME280;20471;49.680;20.074;2023-03-22T11:19:36;96874.83;;;17.05;51.56
34205;BME280;20471;49.680;20.074;2023-03-22T11:22:05;96874.23;;;17.13;51.66
34205;BME280;20471;49.680;20.074;2023-03-22T11:24:34;96869.73;;;17.10;51.32
34205;BME280;20471;49.680;20.074;2023-03-22T11:27:04;96869.65;;;17.06;51.70
34205;BME280;20471;49.680;20.074;2023-03-22T11:29:42;96872.14;;;17.14;51.95
34205;BME280;20471;49.680;20.074;2023-03-22T11:32:27;96873.77;;;17.22;51.18
34205;BME280;20471;49.680;20.074;2023-03-22T11:35:10;96872.03;;;17.23;51.00
34205;BME280;20471;49.680;20.074;2023-03-22T11:37:40;96870.64;;;17.20;50.72
34205;BME280;20471;49.680;20.074;2023-03-22T11:40:13;96866.84;;;17.21;50.59
34205;BME280;20471;49.680;20.074;2023-03-22T11:42:41;96865.81;;;17.22;50.61
34205;BME280;20471;49.680;20.074;2023-03-22T11:45:13;96862.08;;;17.15;50.14
34205;BME280;20471;49.680;20.074;2023-03-22T11:47:42;96859.77;;;17.11;50.36
34205;BME280;20471;49.680;20.074;2023-03-22T11:50:27;96859.54;;;17.09;50.35
34205;BME280;20471;49.680;20.074;2023-03-22T11:52:56;96859.04;;;17.09;50.23
34205;BME280;20471;49.680;20.074;2023-03-22T11:55:24;96855.50;;;17.09;50.17
34205;BME280;20471;49.680;20.074;2023-03-22T11:57:53;96856.66;;;17.12;50.20
34205;BME280;20471;49.680;20.074;2023-03-22T12:00:23;96854.21;;;17.15;50.06
34205;BME280;20471;49.680;20.074;2023-03-22T12:03:12;96851.98;;;17.13;49.90
34205;BME280;20471;49.680;20.074;2023-03-22T12:05:42;96852.47;;;17.05;49.69
34205;BME280;20471;49.680;20.074;2023-03-22T12:10:49;96853.95;;;16.83;49.54
34205;BME280;20471;49.680;20.074;2023-03-22T12:13:24;96852.44;;;16.75;49.57
34205;BME280;20471;49.680;20.074;2023-03-22T12:15:55;96855.23;;;16.70;49.56
34205;BME280;20471;49.680;20.074;2023-03-22T12:18:28;96853.45;;;16.64;49.67
34205;BME280;20471;49.680;20.074;2023-03-22T12:20:59;96850.33;;;16.56;49.38
34205;BME280;20471;49.680;20.074;2023-03-22T12:23:29;96849.88;;;16.54;49.57
34205;BME280;20471;49.680;20.074;2023-03-22T12:25:59;96849.45;;;16.57;49.72
34205;BME280;20471;49.680;20.074;2023-03-22T12:28:36;96846.68;;;16.58;49.72
34205;BME280;20471;49.680;20.074;2023-03-22T12:31:17;96838.27;;;16.55;49.53
34205;BME280;20471;49.680;20.074;2023-03-22T12:33:48;96838.19;;;16.50;49.60
34205;BME280;20471;49.680;20.074;2023-03-22T12:36:20;96839.33;;;16.44;49.74
34205;BME280;20471;49.680;20.074;2023-03-22T12:38:55;96838.58;;;16.44;49.59
34205;BME280;20471;49.680;20.074;2023-03-22T12:41:31;96839.23;;;16.45;49.67
34205;BME280;20471;49.680;20.074;2023-03-22T12:44:02;96841.77;;;16.43;49.65
34205;BME280;20471;49.680;20.074;2023-03-22T12:46:39;96839.88;;;16.41;49.36
34205;BME280;20471;49.680;20.074;2023-03-22T12:51:49;96837.95;;;16.32;49.58
34205;BME280;20471;49.680;20.074;2023-03-22T12:54:19;96841.16;;;16.32;49.77
34205;BME280;20471;49.680;20.074;2023-03-22T12:56:49;96842.50;;;16.28;49.56
34205;BME280;20471;49.680;20.074;2023-03-22T12:59:27;96842.38;;;16.26;49.43
34205;BME280;20471;49.680;20.074;2023-03-22T13:04:25;96836.16;;;16.39;49.16
34205;BME280;20471;49.680;20.074;2023-03-22T13:06:55;96836.05;;;16.48;49.03
34205;BME280;20471;49.680;20.074;2023-03-22T13:19:53;96823.85;;;16.62;48.55
34205;BME280;20471;49.680;20.074;2023-03-22T13:27:55;96810.35;;;16.85;48.70
34205;BME280;20471;49.680;20.074;2023-03-22T13:32:54;96797.36;;;17.26;48.11
34205;BME280;20471;49.680;20.074;2023-03-22T13:38:25;96785.92;;;17.91;47.53
34205;BME280;20471;49.680;20.074;2023-03-22T13:51:20;96780.45;;;18.83;45.88
34205;BME280;20471;49.680;20.074;2023-03-22T13:56:29;96776.85;;;19.18;45.27
34205;BME280;20471;49.680;20.074;2023-03-22T13:59:02;96773.29;;;19.29;44.75
34205;BME280;20471;49.680;20.074;2023-03-22T14:04:01;96765.49;;;19.63;44.54
34205;BME280;20471;49.680;20.074;2023-03-22T14:06:33;96766.25;;;19.73;44.13
34205;BME280;20471;49.680;20.074;2023-03-22T14:09:08;96766.42;;;19.86;44.09
34205;BME280;20471;49.680;20.074;2023-03-22T14:11:45;96762.83;;;19.96;43.95
34205;BME280;20471;49.680;20.074;2023-03-22T14:14:18;96757.98;;;20.01;43.69
34205;BME280;20471;49.680;20.074;2023-03-22T14:16:48;96758.64;;;20.17;43.54
34205;BME280;20471;49.680;20.074;2023-03-22T14:19:20;96757.89;;;20.23;43.30
34205;BME280;20471;49.680;20.074;2023-03-22T14:21:56;96757.35;;;20.21;42.79
34205;BME280;20471;49.680;20.074;2023-03-22T14:24:25;96760.16;;;20.19;42.80
34205;BME280;20471;49.680;20.074;2023-03-22T14:26:55;96759.01;;;20.26;42.68
34205;BME280;20471;49.680;20.074;2023-03-22T14:29:38;96755.64;;;20.22;42.76
34205;BME280;20471;49.680;20.074;2023-03-22T14:32:16;96754.07;;;20.19;42.80
34205;BME280;20471;49.680;20.074;2023-03-22T14:34:46;96749.59;;;20.25;42.61
34205;BME280;20471;49.680;20.074;2023-03-22T14:37:15;96748.02;;;20.24;42.68
34205;BME280;20471;49.680;20.074;2023-03-22T14:39:47;96748.92;;;20.19;42.39
34205;BME280;20471;49.680;20.074;2023-03-22T14:42:24;96748.08;;;20.16;42.44
34205;BME280;20471;49.680;20.074;2023-03-22T14:44:55;96746.17;;;20.16;42.23
34205;BME280;20471;49.680;20.074;2023-03-22T14:47:27;96743.46;;;20.12;41.80
34205;BME280;20471;49.680;20.074;2023-03-22T14:50:04;96742.05;;;20.05;41.81
34205;BME280;20471;49.680;20.074;2023-03-22T14:52:33;96743.14;;;19.99;41.61
34205;BME280;20471;49.680;20.074;2023-03-22T14:55:03;96740.47;;;19.97;41.78
34205;BME280;20471;49.680;20.074;2023-03-22T14:57:42;96737.45;;;19.93;41.68
34205;BME280;20471;49.680;20.074;2023-03-22T15:00:12;96735.10;;;19.92;41.74
34205;BME280;20471;49.680;20.074;2023-03-22T15:02:45;96733.04;;;19.94;41.83